Time;durP1;ratioP1;P1;durP2;ratioP2;P2;SDS_P1;SDS_P2;PMS_P1;PMS_P2;Temp;Humidity;BMP_temperature;BMP_pressure;BME280_temperature;BME280_humidity;BME280_pressure;Samples;Min_cycle;Max_cycle;Signal;HPM_P1;HPM_P2
2021/05/24 00:00:49;;;;;;;2.45;0.57;;;19.10;65.90;;;;;;5051566;28;20021;-72
2021/05/24 00:03:14;;;;;;;1.92;0.50;;;19.10;66.70;;;;;;5051596;28;20025;-73
2021/05/24 00:05:40;;;;;;;0.60;0.40;;;19.00;66.00;;;;;;5051610;28;20087;-72
2021/05/24 00:08:07;;;;;;;3.15;0.45;;;19.00;65.90;;;;;;5050908;28;20036;-72
2021/05/24 00:10:36;;;;;;;0.77;0.40;;;19.00;65.90;;;;;;5051554;28;20052;-73
2021/05/24 00:13:05;;;;;;;2.83;0.90;;;19.00;65.90;;;;;;5051585;28;20036;-72
2021/05/24 00:15:35;;;;;;;1.55;0.50;;;19.00;66.00;;;;;;5051459;28;20134;-73
2021/05/24 00:18:01;;;;;;;1.35;0.50;;;18.90;66.00;;;;;;5051236;28;20020;-73
2021/05/24 00:20:30;;;;;;;1.35;0.70;;;18.90;66.00;;;;;;5051327;28;20047;-73
2021/05/24 00:22:56;;;;;;;0.70;0.30;;;18.90;66.00;;;;;;5051434;28;20579;-73
2021/05/24 00:25:22;;;;;;;1.15;0.63;;;18.90;66.10;;;;;;5051293;28;20025;-74
2021/05/24 00:27:48;;;;;;;1.45;0.52;;;18.90;66.00;;;;;;5050692;28;20104;-73
2021/05/24 00:30:15;;;;;;;2.08;0.60;;;18.80;66.00;;;;;;5051160;28;20021;-74
2021/05/24 00:32:41;;;;;;;1.02;0.43;;;18.80;66.10;;;;;;5050966;28;20412;-73
2021/05/24 00:35:09;;;;;;;1.45;0.40;;;18.80;66.00;;;;;;5050971;28;20029;-74
2021/05/24 00:37:35;;;;;;;0.75;0.50;;;18.80;65.90;;;;;;5050842;28;20039;-74
2021/05/24 00:40:00;;;;;;;1.75;0.50;;;18.70;65.80;;;;;;5051140;28;20017;-73
2021/05/24 00:42:26;;;;;;;1.40;0.40;;;18.70;65.70;;;;;;5050757;28;20029;-73
2021/05/24 00:44:52;;;;;;;0.65;0.30;;;18.70;65.70;;;;;;5050945;28;20021;-74
2021/05/24 00:47:17;;;;;;;0.60;0.30;;;18.70;65.60;;;;;;5051517;28;20120;-74
2021/05/24 00:49:44;;;;;;;1.77;0.60;;;18.70;65.60;;;;;;5050085;28;20025;-74
2021/05/24 00:52:11;;;;;;;1.05;0.40;;;18.60;66.30;;;;;;5050784;28;20094;-72
2021/05/24 00:54:37;;;;;;;1.52;0.38;;;18.60;65.70;;;;;;5050838;28;20032;-72
2021/05/24 00:57:04;;;;;;;1.67;0.40;;;18.60;65.50;;;;;;5050610;28;20036;-71
2021/05/24 00:59:29;;;;;;;0.80;0.35;;;18.60;65.40;;;;;;5050817;28;20457;-72
2021/05/24 01:01:55;;;;;;;2.60;0.50;;;18.60;65.50;;;;;;5050995;28;20112;-72
2021/05/24 01:04:21;;;;;;;1.15;0.40;;;18.60;65.50;;;;;;5050696;28;20075;-73
2021/05/24 01:06:48;;;;;;;2.15;0.50;;;18.60;65.50;;;;;;5050857;28;20040;-72
2021/05/24 01:09:17;;;;;;;0.68;0.38;;;18.50;65.50;;;;;;5050753;28;20025;-72
2021/05/24 01:11:46;;;;;;;1.25;0.50;;;18.50;65.50;;;;;;5050126;28;20076;-72
2021/05/24 01:14:12;;;;;;;1.20;0.40;;;18.50;65.50;;;;;;5050569;28;20467;-72
2021/05/24 01:16:37;;;;;;;1.50;0.50;;;18.50;65.60;;;;;;5049953;28;20104;-72
2021/05/24 01:19:03;;;;;;;0.82;0.32;;;18.50;65.60;;;;;;5050847;28;20079;-72
2021/05/24 01:21:29;;;;;;;1.45;0.47;;;18.50;65.70;;;;;;5050523;28;20025;-72
2021/05/24 01:23:55;;;;;;;2.08;0.57;;;18.40;65.60;;;;;;5050747;28;20057;-73
2021/05/24 01:26:21;;;;;;;1.67;0.40;;;18.40;65.70;;;;;;5050250;28;20489;-73
2021/05/24 01:28:48;;;;;;;1.90;0.52;;;18.40;65.60;;;;;;5050659;28;20208;-72
2021/05/24 01:31:15;;;;;;;1.17;0.30;;;18.40;65.70;;;;;;5052502;28;20025;-72
2021/05/24 01:33:41;;;;;;;1.45;0.60;;;18.40;65.70;;;;;;5054534;28;20390;-72
2021/05/24 01:36:09;;;;;;;0.95;0.40;;;18.40;65.80;;;;;;5054221;28;20013;-72
2021/05/24 01:38:37;;;;;;;1.35;0.40;;;18.40;65.80;;;;;;5053767;28;20059;-72
2021/05/24 01:41:05;;;;;;;1.17;0.50;;;18.30;65.80;;;;;;5054566;28;20025;-72
2021/05/24 01:43:31;;;;;;;1.50;0.47;;;18.30;65.80;;;;;;5054134;28;20033;-72
2021/05/24 01:45:57;;;;;;;1.15;0.40;;;18.30;65.90;;;;;;5054486;28;20025;-73
2021/05/24 01:48:23;;;;;;;1.08;0.43;;;18.30;65.90;;;;;;5054060;28;20079;-73
2021/05/24 01:50:50;;;;;;;0.80;0.30;;;18.30;65.90;;;;;;5054516;28;20412;-72
2021/05/24 01:53:16;;;;;;;1.77;0.50;;;18.20;66.00;;;;;;5054063;28;20156;-72
2021/05/24 01:55:42;;;;;;;1.65;0.50;;;18.30;66.00;;;;;;5053774;28;20532;-72
2021/05/24 01:58:08;;;;;;;3.17;0.70;;;18.20;66.00;;;;;;5053933;28;20025;-73
2021/05/24 02:00:34;;;;;;;4.25;0.40;;;18.20;66.10;;;;;;5053330;28;20028;-73
2021/05/24 02:03:00;;;;;;;1.35;0.22;;;18.20;66.10;;;;;;5054032;28;20029;-72
2021/05/24 02:05:27;;;;;;;0.75;0.40;;;18.20;66.10;;;;;;5053904;28;20029;-72
2021/05/24 02:07:54;;;;;;;0.80;0.28;;;18.20;66.10;;;;;;5053930;28;20489;-73
2021/05/24 02:10:23;;;;;;;0.57;0.30;;;18.20;66.20;;;;;;5054220;28;20048;-73
2021/05/24 02:12:49;;;;;;;1.63;0.28;;;18.20;66.20;;;;;;5054144;28;20037;-73
2021/05/24 02:15:22;;;;;;;0.45;0.20;;;18.20;66.20;;;;;;5053895;28;20097;-73
2021/05/24 02:17:47;;;;;;;1.52;0.40;;;18.10;66.20;;;;;;5054040;28;20029;-73
2021/05/24 02:20:18;;;;;;;0.57;0.35;;;18.10;66.30;;;;;;5053766;28;20393;-73
2021/05/24 02:22:44;;;;;;;2.17;0.65;;;18.10;66.30;;;;;;5053470;28;20090;-73
2021/05/24 02:25:11;;;;;;;1.65;0.40;;;18.10;66.30;;;;;;5053276;28;20486;-72
2021/05/24 02:27:36;;;;;;;1.27;0.30;;;18.10;66.30;;;;;;5053277;28;20017;-73
2021/05/24 02:30:04;;;;;;;1.65;0.40;;;18.10;66.30;;;;;;5053466;28;20078;-73
2021/05/24 02:32:29;;;;;;;1.73;0.32;;;18.10;66.30;;;;;;5052795;28;20400;-73
2021/05/24 02:34:55;;;;;;;0.60;0.30;;;18.10;66.40;;;;;;5053322;28;20029;-74
2021/05/24 02:37:21;;;;;;;0.93;0.38;;;18.00;66.40;;;;;;5052916;28;20102;-74
2021/05/24 02:39:47;;;;;;;1.35;0.32;;;18.00;67.20;;;;;;5053586;28;20118;-73
2021/05/24 02:42:13;;;;;;;0.75;0.28;;;18.00;67.20;;;;;;5053026;28;20450;-73
2021/05/24 02:44:38;;;;;;;1.25;0.40;;;18.00;66.50;;;;;;5053173;28;20408;-73
2021/05/24 02:47:04;;;;;;;1.23;0.40;;;18.00;66.50;;;;;;5053203;28;20558;-73
2021/05/24 02:49:29;;;;;;;1.00;0.38;;;18.00;66.50;;;;;;5051646;28;20028;-73
2021/05/24 02:51:55;;;;;;;1.02;0.30;;;18.00;66.50;;;;;;5052891;28;20074;-73
2021/05/24 02:54:21;;;;;;;1.42;0.30;;;18.00;66.50;;;;;;5053164;28;20074;-73
2021/05/24 02:56:46;;;;;;;0.70;0.30;;;18.00;66.50;;;;;;5052805;28;20504;-74
2021/05/24 02:59:12;;;;;;;1.10;0.30;;;18.00;66.50;;;;;;5052310;28;20040;-74
2021/05/24 03:01:38;;;;;;;1.20;0.55;;;17.90;66.40;;;;;;5052690;28;20029;-74
2021/05/24 03:04:06;;;;;;;1.55;0.40;;;18.00;66.50;;;;;;5053083;28;20484;-73
2021/05/24 03:06:34;;;;;;;0.55;0.35;;;17.90;66.50;;;;;;5052617;28;20041;-73
2021/05/24 03:08:59;;;;;;;0.73;0.40;;;18.00;66.50;;;;;;5052458;28;20107;-73
2021/05/24 03:11:25;;;;;;;1.25;0.38;;;17.90;66.50;;;;;;5052522;28;20112;-73
2021/05/24 03:13:51;;;;;;;0.88;0.40;;;17.90;66.50;;;;;;5052737;28;20040;-73
2021/05/24 03:16:17;;;;;;;1.10;0.30;;;17.90;66.60;;;;;;5052633;28;20033;-72
2021/05/24 03:18:43;;;;;;;0.95;0.30;;;17.90;66.60;;;;;;5052102;28;20025;-72
2021/05/24 03:21:09;;;;;;;1.08;0.30;;;17.90;66.50;;;;;;5052638;28;20108;-72
2021/05/24 03:23:35;;;;;;;0.75;0.30;;;17.90;66.50;;;;;;5052238;28;20108;-71
2021/05/24 03:26:01;;;;;;;1.70;0.40;;;17.90;66.60;;;;;;5051712;28;20104;-72
2021/05/24 03:28:26;;;;;;;1.27;0.40;;;17.90;66.60;;;;;;5051903;28;20501;-72
2021/05/24 03:30:52;;;;;;;1.67;0.40;;;17.80;66.50;;;;;;5052221;28;20029;-74
2021/05/24 03:33:18;;;;;;;0.98;0.40;;;17.90;66.70;;;;;;5052094;28;20033;-72
2021/05/24 03:35:43;;;;;;;1.38;0.30;;;17.90;66.70;;;;;;5052156;28;20358;-72
2021/05/24 03:38:09;;;;;;;0.98;0.30;;;17.80;66.70;;;;;;5052432;28;20086;-72
2021/05/24 03:40:35;;;;;;;0.93;0.40;;;17.80;66.80;;;;;;5051987;28;20079;-73
2021/05/24 03:43:00;;;;;;;3.33;0.75;;;17.80;66.70;;;;;;5052255;28;20025;-72
2021/05/24 03:45:27;;;;;;;1.83;0.50;;;17.80;66.70;;;;;;5051966;28;20025;-73
2021/05/24 03:47:53;;;;;;;0.88;0.30;;;17.80;66.70;;;;;;5052125;28;20020;-72
2021/05/24 03:50:20;;;;;;;1.55;0.40;;;17.80;66.80;;;;;;5052026;28;20476;-72
2021/05/24 03:52:46;;;;;;;0.90;0.40;;;17.80;66.80;;;;;;5051349;28;20029;-72
2021/05/24 03:55:14;;;;;;;2.67;0.47;;;17.80;66.80;;;;;;5051919;28;20392;-72
2021/05/24 03:57:40;;;;;;;1.48;0.40;;;17.80;66.90;;;;;;5051808;28;20025;-72
2021/05/24 04:00:08;;;;;;;1.77;0.50;;;17.80;66.80;;;;;;5051860;28;20021;-72
2021/05/24 04:02:33;;;;;;;0.63;0.38;;;17.80;66.80;;;;;;5051431;28;20078;-72
2021/05/24 04:05:02;;;;;;;0.75;0.50;;;17.80;66.90;;;;;;5051424;28;20072;-72
2021/05/24 04:07:27;;;;;;;2.10;0.60;;;17.80;66.90;;;;;;5051191;28;20086;-72
2021/05/24 04:09:54;;;;;;;1.45;0.38;;;17.80;66.80;;;;;;5051658;28;20096;-72
2021/05/24 04:12:19;;;;;;;0.77;0.30;;;17.80;66.90;;;;;;5051984;28;20044;-72
2021/05/24 04:14:45;;;;;;;3.28;0.50;;;17.70;66.80;;;;;;5051536;28;20021;-72
2021/05/24 04:17:14;;;;;;;0.75;0.30;;;17.70;66.80;;;;;;5051679;28;20060;-72
2021/05/24 04:19:42;;;;;;;0.65;0.30;;;17.70;66.80;;;;;;5051317;28;20072;-73
2021/05/24 04:22:08;;;;;;;0.60;0.30;;;17.70;66.90;;;;;;5051477;28;20545;-72
2021/05/24 04:24:33;;;;;;;0.75;0.32;;;17.70;66.90;;;;;;5050631;28;20048;-72
2021/05/24 04:26:59;;;;;;;1.65;0.45;;;17.70;67.00;;;;;;5050555;28;20086;-72
2021/05/24 04:29:25;;;;;;;0.85;0.40;;;17.70;67.00;;;;;;5050835;28;20060;-72
2021/05/24 04:31:50;;;;;;;0.88;0.40;;;17.70;67.10;;;;;;5051285;28;20474;-75
2021/05/24 04:34:16;;;;;;;0.77;0.40;;;17.60;67.80;;;;;;5051661;28;20029;-73
2021/05/24 04:36:41;;;;;;;3.40;0.45;;;17.60;67.20;;;;;;5050737;28;20025;-73
2021/05/24 04:39:07;;;;;;;1.92;0.30;;;17.70;67.20;;;;;;5051222;28;20098;-73
2021/05/24 04:41:33;;;;;;;0.50;0.40;;;17.60;67.20;;;;;;5049742;28;20103;-73
2021/05/24 04:44:12;;;;;;;1.15;0.40;;;17.60;67.20;;;;;;5051043;28;20017;-74
2021/05/24 04:46:38;;;;;;;2.80;0.40;;;17.60;67.20;;;;;;5050834;28;20460;-73
2021/05/24 04:49:04;;;;;;;0.65;0.30;;;17.70;67.30;;;;;;5051069;28;20049;-74
2021/05/24 04:51:29;;;;;;;1.45;0.30;;;17.60;67.30;;;;;;5050597;28;20079;-74
2021/05/24 04:53:55;;;;;;;0.63;0.30;;;17.60;67.30;;;;;;5051045;28;20107;-73
2021/05/24 04:56:21;;;;;;;1.95;0.40;;;17.60;67.20;;;;;;5050443;28;20052;-74
2021/05/24 04:58:46;;;;;;;0.98;0.40;;;17.60;67.30;;;;;;5050596;28;20054;-73
2021/05/24 05:01:12;;;;;;;0.98;0.52;;;17.60;67.30;;;;;;5050462;28;20079;-73
2021/05/24 05:03:37;;;;;;;1.80;0.40;;;17.60;67.40;;;;;;5050412;28;20384;-73
2021/05/24 05:06:03;;;;;;;2.60;0.45;;;17.60;67.50;;;;;;5053487;28;20033;-73
2021/05/24 05:08:29;;;;;;;0.68;0.40;;;17.60;67.40;;;;;;5054918;28;20033;-73
2021/05/24 05:10:55;;;;;;;0.98;0.30;;;17.60;67.50;;;;;;5054939;28;20190;-74
2021/05/24 05:13:20;;;;;;;1.23;0.30;;;17.60;67.50;;;;;;5055291;28;20032;-72
2021/05/24 05:15:46;;;;;;;1.08;0.40;;;17.60;67.50;;;;;;5055169;28;20021;-73
2021/05/24 05:18:12;;;;;;;1.20;0.43;;;17.60;67.50;;;;;;5054845;28;20025;-74
2021/05/24 05:20:37;;;;;;;0.82;0.30;;;17.60;67.50;;;;;;5054671;28;20025;-73
2021/05/24 05:23:03;;;;;;;1.10;0.57;;;17.60;67.50;;;;;;5054801;28;20018;-73
2021/05/24 05:25:29;;;;;;;0.60;0.30;;;17.50;67.60;;;;;;5054131;28;20033;-73
2021/05/24 05:27:54;;;;;;;0.65;0.30;;;17.50;67.50;;;;;;5054575;28;20057;-73
2021/05/24 05:30:20;;;;;;;0.52;0.35;;;17.50;67.50;;;;;;5053367;28;20040;-73
2021/05/24 05:32:46;;;;;;;2.00;0.50;;;17.50;67.70;;;;;;5054324;28;20040;-72
2021/05/24 05:35:13;;;;;;;0.80;0.30;;;17.50;67.80;;;;;;5054027;28;20037;-72
2021/05/24 05:37:39;;;;;;;1.40;0.40;;;17.50;67.90;;;;;;5053796;28;20519;-72
2021/05/24 05:40:05;;;;;;;1.13;0.40;;;17.50;67.90;;;;;;5054339;28;20029;-72
2021/05/24 05:42:31;;;;;;;0.82;0.30;;;17.50;68.00;;;;;;5054372;28;20017;-72
2021/05/24 05:44:57;;;;;;;0.93;0.30;;;17.50;67.90;;;;;;5054464;28;20036;-72
2021/05/24 05:47:22;;;;;;;1.00;0.30;;;17.50;68.00;;;;;;5054028;28;20396;-73
2021/05/24 05:49:49;;;;;;;2.00;0.40;;;17.50;68.00;;;;;;5054574;28;20032;-72
2021/05/24 05:52:17;;;;;;;2.65;0.40;;;17.50;68.10;;;;;;5054030;28;20041;-72
2021/05/24 05:54:44;;;;;;;0.70;0.40;;;17.50;68.10;;;;;;5054857;28;20036;-72
2021/05/24 05:57:10;;;;;;;0.77;0.30;;;17.50;68.10;;;;;;5054276;28;20485;-72
2021/05/24 05:59:35;;;;;;;1.55;0.32;;;17.50;68.10;;;;;;5053704;28;20032;-72
2021/05/24 06:02:01;;;;;;;0.70;0.30;;;17.50;68.10;;;;;;5053553;28;20033;-72
2021/05/24 06:04:27;;;;;;;0.60;0.30;;;17.50;68.20;;;;;;5052536;28;20033;-72
2021/05/24 06:06:52;;;;;;;0.68;0.32;;;17.50;68.30;;;;;;5053940;28;20107;-72
2021/05/24 06:09:18;;;;;;;0.88;0.30;;;17.50;68.20;;;;;;5054038;28;20024;-72
2021/05/24 06:11:44;;;;;;;0.82;0.30;;;17.50;68.30;;;;;;5053673;28;20029;-72
2021/05/24 06:14:09;;;;;;;1.00;0.40;;;17.50;68.30;;;;;;5053896;28;20120;-72
2021/05/24 06:16:35;;;;;;;2.42;0.50;;;17.50;68.30;;;;;;5053014;28;20041;-72
2021/05/24 06:19:00;;;;;;;0.70;0.30;;;17.40;68.30;;;;;;5053777;28;20028;-72
2021/05/24 06:21:26;;;;;;;1.20;0.30;;;17.40;68.20;;;;;;5053470;28;20063;-72
2021/05/24 06:23:51;;;;;;;2.85;0.30;;;17.40;68.30;;;;;;5053490;28;20058;-73
2021/05/24 06:26:17;;;;;;;2.50;0.30;;;17.40;69.10;;;;;;5054067;28;20025;-72
2021/05/24 06:28:43;;;;;;;0.73;0.32;;;17.40;68.40;;;;;;5052128;28;20513;-72
2021/05/24 06:31:09;;;;;;;0.95;0.30;;;17.40;68.60;;;;;;5052448;28;20033;-73
2021/05/24 06:33:34;;;;;;;1.83;0.40;;;17.40;68.70;;;;;;5053487;28;20053;-72
2021/05/24 06:36:00;;;;;;;0.88;0.28;;;17.40;68.70;;;;;;5053569;28;20021;-72
2021/05/24 06:38:25;;;;;;;1.23;0.30;;;17.40;68.70;;;;;;5053010;28;20082;-72
2021/05/24 06:40:51;;;;;;;1.73;0.43;;;17.40;68.80;;;;;;5052070;28;20451;-72
2021/05/24 06:43:17;;;;;;;2.25;0.47;;;17.40;68.80;;;;;;5051478;28;20047;-72
2021/05/24 06:45:42;;;;;;;0.47;0.30;;;17.40;68.80;;;;;;5052762;28;20021;-72
2021/05/24 06:48:08;;;;;;;1.63;0.30;;;17.40;68.90;;;;;;5053312;28;20033;-72
2021/05/24 06:50:34;;;;;;;1.45;0.30;;;17.40;68.90;;;;;;5052927;28;20033;-72
2021/05/24 06:52:59;;;;;;;2.00;0.52;;;17.40;69.00;;;;;;5051274;28;20403;-72
2021/05/24 06:55:25;;;;;;;0.70;0.30;;;17.40;69.00;;;;;;5052523;28;20051;-72
2021/05/24 06:57:50;;;;;;;2.42;0.40;;;17.40;69.00;;;;;;5052941;28;20374;-74
2021/05/24 07:00:16;;;;;;;1.25;0.35;;;17.40;69.00;;;;;;5051426;28;20585;-73
2021/05/24 07:02:43;;;;;;;1.17;0.35;;;17.40;69.10;;;;;;5052789;28;20021;-73
2021/05/24 07:05:10;;;;;;;1.60;0.30;;;17.40;69.20;;;;;;5053038;28;20480;-73
2021/05/24 07:07:36;;;;;;;1.10;0.30;;;17.40;69.20;;;;;;5051529;28;20110;-73
2021/05/24 07:10:03;;;;;;;1.27;0.32;;;17.40;69.20;;;;;;5052286;28;20133;-72
2021/05/24 07:12:29;;;;;;;2.08;0.50;;;17.40;69.30;;;;;;5051707;28;20025;-73
2021/05/24 07:14:56;;;;;;;0.63;0.30;;;17.40;69.50;;;;;;5051352;28;20037;-72
2021/05/24 07:17:22;;;;;;;5.15;0.50;;;17.40;69.70;;;;;;5052641;28;20025;-73
2021/05/24 07:19:47;;;;;;;0.95;0.30;;;17.40;70.00;;;;;;5052926;28;20035;-73
2021/05/24 07:22:13;;;;;;;1.20;0.35;;;17.40;70.10;;;;;;5051924;28;20033;-74
2021/05/24 07:24:39;;;;;;;2.88;0.30;;;17.40;70.00;;;;;;5051821;28;20100;-73
2021/05/24 07:27:06;;;;;;;3.20;0.35;;;17.50;70.00;;;;;;5049460;28;20029;-73
2021/05/24 07:29:31;;;;;;;1.55;0.50;;;17.50;70.20;;;;;;5050448;28;20021;-73
2021/05/24 07:31:57;;;;;;;6.50;0.70;;;17.60;70.30;;;;;;5051050;28;20037;-72
2021/05/24 07:34:23;;;;;;;1.35;0.45;;;17.70;70.50;;;;;;5050592;28;20017;-73
2021/05/24 07:36:48;;;;;;;4.13;0.55;;;17.80;70.30;;;;;;5051903;28;20078;-73
2021/05/24 07:39:14;;;;;;;1.65;0.38;;;17.80;70.60;;;;;;5052457;28;20513;-74
2021/05/24 07:41:40;;;;;;;1.08;0.38;;;18.00;70.80;;;;;;5051525;28;20104;-72
2021/05/24 07:44:05;;;;;;;1.65;0.40;;;18.00;71.20;;;;;;5051363;28;20431;-74
2021/05/24 07:46:31;;;;;;;1.50;0.40;;;18.10;71.20;;;;;;5050765;28;20100;-74
2021/05/24 07:48:57;;;;;;;2.03;0.40;;;18.20;70.90;;;;;;5050108;28;20062;-73
2021/05/24 07:51:24;;;;;;;5.13;0.95;;;18.30;71.40;;;;;;5049948;28;20037;-73
2021/05/24 07:53:51;;;;;;;3.60;0.45;;;18.40;70.60;;;;;;5050588;28;20100;-72
2021/05/24 07:56:17;;;;;;;4.43;2.33;;;18.50;71.10;;;;;;5051482;28;20029;-73
2021/05/24 07:58:42;;;;;;;13.80;6.97;;;18.50;71.00;;;;;;5050527;28;20430;-72
2021/05/24 08:01:08;;;;;;;6.90;4.28;;;18.60;71.20;;;;;;5050958;28;20029;-72
2021/05/24 08:03:33;;;;;;;7.53;3.67;;;18.70;70.80;;;;;;5051567;28;20032;-72
2021/05/24 08:05:59;;;;;;;5.90;3.40;;;18.70;70.80;;;;;;5051751;28;20492;-72
2021/05/24 08:08:25;;;;;;;7.47;3.60;;;18.80;70.80;;;;;;5051988;28;20116;-71
2021/05/24 08:10:51;;;;;;;5.15;3.00;;;18.90;70.80;;;;;;5051347;28;20096;-73
2021/05/24 08:13:16;;;;;;;6.20;2.65;;;18.90;70.90;;;;;;5051953;28;20079;-72
2021/05/24 08:15:42;;;;;;;6.57;2.92;;;19.10;71.10;;;;;;5051810;28;20024;-72
2021/05/24 08:18:08;;;;;;;4.20;2.30;;;19.10;70.90;;;;;;5051612;28;20452;-72
2021/05/24 08:20:35;;;;;;;5.53;2.30;;;19.10;70.50;;;;;;5051364;28;20071;-72
2021/05/24 08:23:02;;;;;;;7.60;2.20;;;19.20;69.80;;;;;;5051074;28;20032;-72
2021/05/24 08:25:28;;;;;;;5.90;2.13;;;19.30;70.00;;;;;;5051134;28;20021;-72
2021/05/24 08:27:53;;;;;;;10.43;1.58;;;19.30;70.00;;;;;;5051194;28;20119;-72
2021/05/24 08:30:20;;;;;;;3.38;1.30;;;19.40;69.80;;;;;;5051700;28;20443;-72
2021/05/24 08:32:46;;;;;;;4.00;1.48;;;19.40;69.80;;;;;;5049729;28;20381;-72
2021/05/24 08:35:12;;;;;;;3.47;1.23;;;19.50;69.80;;;;;;5045944;28;20432;-73
2021/05/24 08:37:38;;;;;;;3.60;1.27;;;19.60;69.30;;;;;;5049752;28;20105;-73
2021/05/24 08:40:08;;;;;;;5.70;1.20;;;19.60;69.10;;;;;;5049060;28;20491;-74
2021/05/24 08:42:38;;;;;;;4.57;0.93;;;19.70;69.30;;;;;;5047607;28;20492;-74
2021/05/24 08:45:05;;;;;;;4.90;1.10;;;19.80;69.10;;;;;;5050690;28;20036;-74
2021/05/24 08:47:31;;;;;;;4.60;0.60;;;19.80;68.20;;;;;;5049279;28;20385;-73
2021/05/24 08:50:00;;;;;;;1.45;0.60;;;19.80;68.00;;;;;;5050441;28;20045;-74
2021/05/24 08:52:29;;;;;;;2.47;0.80;;;19.90;68.00;;;;;;5049775;28;20033;-74
2021/05/24 08:54:55;;;;;;;2.97;0.82;;;19.90;67.80;;;;;;5050532;28;20028;-74
2021/05/24 08:57:21;;;;;;;1.70;0.70;;;20.00;68.60;;;;;;5050072;28;20130;-74
2021/05/24 08:59:47;;;;;;;2.17;0.60;;;20.10;67.90;;;;;;5037805;28;20098;-73
2021/05/24 09:02:13;;;;;;;1.40;0.63;;;20.10;67.70;;;;;;5050529;28;20103;-73
2021/05/24 09:04:50;;;;;;;1.23;0.60;;;20.20;67.60;;;;;;5050460;28;20083;-73
2021/05/24 09:07:19;;;;;;;1.85;0.70;;;20.20;67.00;;;;;;5050893;28;20127;-73
2021/05/24 09:10:03;;;;;;;3.45;0.80;;;20.30;66.90;;;;;;5046941;28;20033;-73
2021/05/24 09:12:32;;;;;;;2.60;0.85;;;20.30;66.80;;;;;;5050150;28;20114;-73
2021/05/24 09:15:00;;;;;;;1.63;0.68;;;20.40;66.70;;;;;;5050522;28;20163;-73
2021/05/24 09:18:00;;;;;;;2.78;0.50;;;20.40;66.80;;;;;;5050297;28;20047;-75
2021/05/24 09:20:28;;;;;;;2.03;0.77;;;20.50;67.10;;;;;;5049891;28;20028;-74
2021/05/24 09:23:20;;;;;;;4.72;0.80;;;20.60;67.00;;;;;;5049436;28;20025;-74
2021/05/24 09:26:04;;;;;;;3.45;0.70;;;20.70;67.10;;;;;;5034558;28;20380;-74
2021/05/24 09:28:38;;;;;;;3.17;0.60;;;20.70;66.60;;;;;;5049794;28;20443;-74
2021/05/24 09:31:11;;;;;;;2.35;0.73;;;20.80;66.90;;;;;;5050043;28;20128;-75
2021/05/24 09:33:38;;;;;;;5.07;1.02;;;20.80;67.50;;;;;;5049773;28;20067;-76
2021/05/24 09:36:05;;;;;;;2.65;0.85;;;20.80;66.60;;;;;;5049661;28;20104;-75
2021/05/24 09:38:37;;;;;;;1.90;0.50;;;20.80;66.70;;;;;;5049077;28;20485;-75
2021/05/24 09:41:05;;;;;;;1.40;0.43;;;20.80;66.20;;;;;;5048785;28;20037;-76
2021/05/24 09:43:37;;;;;;;1.88;0.50;;;20.90;67.00;;;;;;5048042;28;20029;-76
2021/05/24 09:46:14;;;;;;;1.02;0.50;;;20.80;68.10;;;;;;5049078;28;20481;-75
2021/05/24 09:48:41;;;;;;;1.60;0.55;;;20.90;66.40;;;;;;5049763;28;20025;-74
2021/05/24 09:51:10;;;;;;;1.83;0.60;;;20.90;66.90;;;;;;5050640;28;20060;-75
2021/05/24 09:53:36;;;;;;;3.35;0.63;;;20.80;66.20;;;;;;5053196;28;20116;-78
2021/05/24 09:56:14;;;;;;;2.60;0.95;;;20.80;65.80;;;;;;5053703;28;20438;-78
2021/05/24 09:58:39;;;;;;;2.42;0.75;;;20.80;65.80;;;;;;5053203;28;20032;-77
2021/05/24 10:01:17;;;;;;;3.60;0.85;;;20.80;66.50;;;;;;5053360;28;20025;-78
2021/05/24 10:03:46;;;;;;;1.85;0.93;;;20.80;65.90;;;;;;5049270;28;20029;-77
2021/05/24 10:06:11;;;;;;;2.67;1.02;;;20.80;66.50;;;;;;5054862;28;20063;-75
2021/05/24 10:08:42;;;;;;;2.78;0.80;;;20.80;66.20;;;;;;5054950;28;20025;-74
2021/05/24 10:11:08;;;;;;;9.45;0.80;;;20.80;67.20;;;;;;5055319;28;20061;-73
2021/05/24 10:13:33;;;;;;;5.20;0.95;;;20.80;65.80;;;;;;5055006;28;20056;-75
2021/05/24 10:16:03;;;;;;;4.55;0.90;;;20.80;66.80;;;;;;5055519;28;20017;-73
2021/05/24 10:18:31;;;;;;;2.47;0.77;;;20.80;66.90;;;;;;5054952;28;20036;-73
2021/05/24 10:21:01;;;;;;;4.13;0.80;;;20.80;66.90;;;;;;5052917;28;20412;-73
2021/05/24 10:23:30;;;;;;;3.42;0.98;;;20.80;66.70;;;;;;5052342;28;20936;-72
2021/05/24 10:26:01;;;;;;;5.55;0.90;;;20.80;68.00;;;;;;5053496;28;20028;-73
2021/05/24 10:28:29;;;;;;;2.10;0.75;;;20.70;67.60;;;;;;5052380;28;20025;-73
2021/05/24 10:30:56;;;;;;;2.20;0.77;;;20.70;67.90;;;;;;5052558;28;20036;-73
2021/05/24 10:33:26;;;;;;;5.43;1.00;;;20.70;68.10;;;;;;5052573;28;20028;-74
2021/05/24 10:35:52;;;;;;;2.83;0.80;;;20.70;69.00;;;;;;5052363;28;20075;-73
2021/05/24 10:38:33;;;;;;;2.22;0.85;;;20.70;69.30;;;;;;5053014;28;20029;-73
2021/05/24 10:41:14;;;;;;;3.03;0.90;;;20.60;71.20;;;;;;5052464;28;20017;-73
2021/05/24 10:43:39;;;;;;;1.98;0.70;;;20.60;71.50;;;;;;5052786;28;20032;-74
2021/05/24 10:46:23;;;;;;;3.63;0.82;;;20.60;72.00;;;;;;5052493;28;20028;-74
2021/05/24 10:49:00;;;;;;;4.05;1.13;;;20.60;73.50;;;;;;5052783;28;20423;-73
2021/05/24 10:51:44;;;;;;;5.13;1.38;;;20.60;73.20;;;;;;5052105;28;20029;-74
2021/05/24 10:54:10;;;;;;;5.82;1.35;;;20.50;73.00;;;;;;5049182;28;20040;-75
2021/05/24 10:56:43;;;;;;;7.38;1.33;;;20.50;73.00;;;;;;5051324;28;20021;-73
2021/05/24 10:59:37;;;;;;;3.30;1.02;;;20.50;72.90;;;;;;5052049;28;20036;-74
2021/05/24 11:02:13;;;;;;;6.05;1.42;;;20.50;73.20;;;;;;5051870;28;20037;-74
2021/05/24 11:04:49;;;;;;;6.05;1.70;;;20.40;73.70;;;;;;5051698;28;20021;-75
2021/05/24 11:07:24;;;;;;;7.50;2.08;;;20.40;73.40;;;;;;5051978;28;20094;-76
2021/05/24 11:09:50;;;;;;;;;;;20.40;74.50;;;;;;5052170;28;20485;-76
2021/05/24 11:12:31;;;;;;;12.18;2.30;;;20.40;75.80;;;;;;5052491;28;19958;-77
2021/05/24 11:15:08;;;;;;;11.82;1.92;;;20.30;74.30;;;;;;5052267;28;20044;-76
2021/05/24 11:17:58;;;;;;;6.30;1.85;;;20.30;75.10;;;;;;5051253;28;20017;-76
2021/05/24 11:20:51;;;;;;;8.07;1.70;;;20.30;75.10;;;;;;5051667;28;20037;-75
2021/05/24 11:26:32;;;;;;;4.75;1.50;;;20.30;74.60;;;;;;5051641;28;20033;-75
2021/05/24 11:29:08;;;;;;;8.85;1.75;;;20.30;74.50;;;;;;5046186;28;20512;-76
2021/05/24 11:31:34;;;;;;;9.75;1.88;;;20.30;74.60;;;;;;5050583;28;20029;-76
2021/05/24 11:34:00;;;;;;;9.57;1.67;;;20.30;73.60;;;;;;5051738;28;20075;-76
2021/05/24 11:36:35;;;;;;;6.47;1.98;;;20.30;74.10;;;;;;5051389;28;20440;-76
2021/05/24 11:39:11;;;;;;;9.77;1.75;;;20.30;73.80;;;;;;5051905;28;20122;-75
2021/05/24 11:41:58;;;;;;;5.90;1.70;;;20.30;75.10;;;;;;5050850;28;20029;-74
2021/05/24 11:44:33;;;;;;;4.82;1.60;;;20.30;74.20;;;;;;5051095;28;20029;-76
2021/05/24 11:47:00;;;;;;;6.13;2.20;;;20.30;77.70;;;;;;5051479;28;20021;-75
2021/05/24 11:49:40;;;;;;;19.70;4.10;;;20.30;79.40;;;;;;5050347;28;20044;-75
2021/05/24 11:52:08;;;;;;;14.23;5.57;;;20.40;82.00;;;;;;5051032;28;20029;-76
2021/05/24 11:54:34;;;;;;;11.32;3.72;;;20.40;81.70;;;;;;5050786;28;20182;-75
2021/05/24 11:57:06;;;;;;;11.23;4.20;;;20.40;80.60;;;;;;5051022;28;20021;-75
2021/05/24 11:59:32;;;;;;;10.05;3.22;;;20.40;80.70;;;;;;5050555;28;20519;-76
2021/05/24 12:02:03;;;;;;;10.52;2.95;;;20.40;83.70;;;;;;5051518;28;20021;-76
2021/05/24 12:04:37;;;;;;;9.75;2.92;;;20.40;82.40;;;;;;5050946;28;20051;-76
2021/05/24 12:07:23;;;;;;;7.53;2.30;;;20.40;82.10;;;;;;5050908;28;20060;-75
2021/05/24 12:09:59;;;;;;;10.07;2.78;;;20.40;81.00;;;;;;5036025;28;20021;-76
2021/05/24 12:12:34;;;;;;;8.88;3.17;;;20.40;80.00;;;;;;5050593;28;20526;-77
2021/05/24 12:15:04;;;;;;;9.63;2.93;;;20.50;79.70;;;;;;5050357;28;20033;-76
2021/05/24 12:17:32;;;;;;;8.75;2.97;;;20.50;79.80;;;;;;5050677;28;20279;-77
2021/05/24 12:20:00;;;;;;;7.78;2.00;;;20.50;78.20;;;;;;5050678;28;20120;-76
2021/05/24 12:22:28;;;;;;;7.00;1.95;;;20.50;78.60;;;;;;5049673;28;20484;-75
2021/05/24 12:24:56;;;;;;;8.93;2.00;;;20.50;78.70;;;;;;5050997;28;20108;-76
2021/05/24 12:27:24;;;;;;;8.32;2.53;;;20.50;77.60;;;;;;5050145;28;20028;-74
2021/05/24 12:29:50;;;;;;;6.47;1.90;;;20.50;76.90;;;;;;5051205;28;20037;-75
2021/05/24 12:32:25;;;;;;;6.45;1.52;;;20.50;77.10;;;;;;5050966;28;20492;-74
2021/05/24 12:34:51;;;;;;;7.63;2.40;;;20.50;76.70;;;;;;5050810;28;20104;-74
2021/05/24 12:37:18;;;;;;;5.30;1.73;;;20.50;76.90;;;;;;5050579;28;20524;-74
2021/05/24 12:39:46;;;;;;;3.72;1.33;;;20.40;75.90;;;;;;5040984;28;20064;-73
2021/05/24 12:42:13;;;;;;;6.78;1.67;;;20.40;76.70;;;;;;5050364;28;20025;-73
2021/05/24 12:44:40;;;;;;;6.03;1.77;;;20.40;76.70;;;;;;5050365;28;20400;-75
2021/05/24 12:47:14;;;;;;;4.80;1.60;;;20.30;76.40;;;;;;5050441;28;20396;-74
2021/05/24 12:49:42;;;;;;;4.18;1.45;;;20.30;76.40;;;;;;5050126;28;20032;-75
2021/05/24 12:52:09;;;;;;;5.40;1.77;;;20.30;75.60;;;;;;5050097;28;20041;-73